sensor_id;sensor_type;location;lat;lon;timestamp;pressure;altitude;pressure_sealevel;temperature;humidity
80410;BME280;69746;45.596;10.154;2023-07-30T00:00:43;99240.56;;;26.61;55.64
80410;BME280;69746;45.596;10.154;2023-07-30T00:03:09;99234.63;;;26.63;55.91
80410;BME280;69746;45.596;10.154;2023-07-30T00:05:35;99225.88;;;26.64;56.11
80410;BME280;69746;45.596;10.154;2023-07-30T00:08:01;99211.97;;;26.68;56.30
80410;BME280;69746;45.596;10.154;2023-07-30T00:10:27;99217.56;;;26.68;57.06
80410;BME280;69746;45.596;10.154;2023-07-30T00:12:53;99222.34;;;26.67;56.42
80410;BME280;69746;45.596;10.154;2023-07-30T00:15:19;99213.94;;;26.67;56.25
80410;BME280;69746;45.596;10.154;2023-07-30T00:17:45;99218.88;;;26.70;56.72
80410;BME280;69746;45.596;10.154;2023-07-30T00:20:11;99213.25;;;26.70;56.53
80410;BME280;69746;45.596;10.154;2023-07-30T00:22:37;99210.47;;;26.70;56.39
80410;BME280;69746;45.596;10.154;2023-07-30T00:25:03;99205.31;;;26.72;56.33
80410;BME280;69746;45.596;10.154;2023-07-30T00:27:32;99173.81;;;26.75;56.29
80410;BME280;69746;45.596;10.154;2023-07-30T00:29:59;99162.28;;;26.77;56.21
80410;BME280;69746;45.596;10.154;2023-07-30T00:32:25;99132.28;;;26.78;56.36
80410;BME280;69746;45.596;10.154;2023-07-30T00:34:51;99104.31;;;26.78;56.37
80410;BME280;69746;45.596;10.154;2023-07-30T00:37:17;99093.56;;;26.80;56.35
80410;BME280;69746;45.596;10.154;2023-07-30T00:39:44;99103.13;;;26.79;56.27
80410;BME280;69746;45.596;10.154;2023-07-30T00:42:10;99101.06;;;26.75;56.93
80410;BME280;69746;45.596;10.154;2023-07-30T00:44:36;99096.94;;;26.69;57.04
80410;BME280;69746;45.596;10.154;2023-07-30T00:47:02;99110.91;;;26.69;56.84
80410;BME280;69746;45.596;10.154;2023-07-30T00:49:29;99104.97;;;26.71;56.67
80410;BME280;69746;45.596;10.154;2023-07-30T00:51:55;99101.88;;;26.76;56.85
80410;BME280;69746;45.596;10.154;2023-07-30T00:54:24;99092.69;;;26.75;56.74
80410;BME280;69746;45.596;10.154;2023-07-30T00:56:51;99104.69;;;26.76;57.37
80410;BME280;69746;45.596;10.154;2023-07-30T00:59:21;99111.91;;;26.77;57.02
80410;BME280;69746;45.596;10.154;2023-07-30T01:01:47;99133.13;;;26.78;56.89
80410;BME280;69746;45.596;10.154;2023-07-30T01:04:15;99143.13;;;26.79;56.78
80410;BME280;69746;45.596;10.154;2023-07-30T01:06:41;99138.34;;;26.80;56.71
80410;BME280;69746;45.596;10.154;2023-07-30T01:09:07;99138.72;;;26.78;56.68
80410;BME280;69746;45.596;10.154;2023-07-30T01:11:33;99151.97;;;26.81;56.69
80410;BME280;69746;45.596;10.154;2023-07-30T01:14:00;99156.41;;;26.82;56.49
80410;BME280;69746;45.596;10.154;2023-07-30T01:16:26;99160.03;;;26.83;56.82
80410;BME280;69746;45.596;10.154;2023-07-30T01:18:51;99163.66;;;26.83;56.73
80410;BME280;69746;45.596;10.154;2023-07-30T01:21:20;99167.25;;;26.84;56.87
80410;BME280;69746;45.596;10.154;2023-07-30T01:23:48;99179.28;;;26.84;56.54
80410;BME280;69746;45.596;10.154;2023-07-30T01:26:20;99176.47;;;26.84;56.42
80410;BME280;69746;45.596;10.154;2023-07-30T01:28:56;99161.31;;;26.85;56.43
80410;BME280;69746;45.596;10.154;2023-07-30T01:31:25;99162.94;;;26.86;56.64
80410;BME280;69746;45.596;10.154;2023-07-30T01:33:54;99166.91;;;26.85;56.84
80410;BME280;69746;45.596;10.154;2023-07-30T01:36:21;99172.94;;;26.87;56.71
80410;BME280;69746;45.596;10.154;2023-07-30T01:38:49;99174.94;;;26.87;56.72
80410;BME280;69746;45.596;10.154;2023-07-30T01:41:15;99179.34;;;26.88;57.01
80410;BME280;69746;45.596;10.154;2023-07-30T01:43:44;99182.97;;;26.88;56.51
80410;BME280;69746;45.596;10.154;2023-07-30T01:46:10;99172.13;;;26.87;56.86
80410;BME280;69746;45.596;10.154;2023-07-30T01:48:36;99177.81;;;26.90;56.75
80410;BME280;69746;45.596;10.154;2023-07-30T01:51:01;99174.56;;;26.88;56.62
80410;BME280;69746;45.596;10.154;2023-07-30T01:53:27;99181.78;;;26.89;56.35
80410;BME280;69746;45.596;10.154;2023-07-30T01:55:53;99179.81;;;26.90;56.35
80410;BME280;69746;45.596;10.154;2023-07-30T01:58:18;99170.59;;;26.89;56.50
80410;BME280;69746;45.596;10.154;2023-07-30T02:00:45;99173.41;;;26.89;56.28
80410;BME280;69746;45.596;10.154;2023-07-30T02:03:10;99177.00;;;26.90;56.52
80410;BME280;69746;45.596;10.154;2023-07-30T02:05:36;99190.63;;;26.91;56.18
80410;BME280;69746;45.596;10.154;2023-07-30T02:08:05;99177.81;;;26.90;56.05
80410;BME280;69746;45.596;10.154;2023-07-30T02:10:30;99177.81;;;26.90;56.38
80410;BME280;69746;45.596;10.154;2023-07-30T02:12:56;99181.44;;;26.91;55.89
80410;BME280;69746;45.596;10.154;2023-07-30T02:15:22;99177.81;;;26.90;56.02
80410;BME280;69746;45.596;10.154;2023-07-30T02:17:48;99169.34;;;26.87;55.50
80410;BME280;69746;45.596;10.154;2023-07-30T02:20:14;99167.72;;;26.86;55.70
80410;BME280;69746;45.596;10.154;2023-07-30T02:22:39;99166.91;;;26.85;55.37
80410;BME280;69746;45.596;10.154;2023-07-30T02:25:06;99174.13;;;26.86;55.27
80410;BME280;69746;45.596;10.154;2023-07-30T02:27:31;99167.34;;;26.87;55.43
80410;BME280;69746;45.596;10.154;2023-07-30T02:29:57;99167.34;;;26.87;55.41
80410;BME280;69746;45.596;10.154;2023-07-30T02:32:23;99168.16;;;26.88;55.17
80410;BME280;69746;45.596;10.154;2023-07-30T02:34:52;99177.38;;;26.88;55.47
80410;BME280;69746;45.596;10.154;2023-07-30T02:37:17;99180.16;;;26.88;55.39
80410;BME280;69746;45.596;10.154;2023-07-30T02:39:43;99179.00;;;26.89;55.04
80410;BME280;69746;45.596;10.154;2023-07-30T02:42:09;99180.97;;;26.89;55.34
80410;BME280;69746;45.596;10.154;2023-07-30T02:44:35;99191.38;;;26.88;55.33
80410;BME280;69746;45.596;10.154;2023-07-30T02:47:00;99183.31;;;26.87;55.34
80410;BME280;69746;45.596;10.154;2023-07-30T02:49:26;99183.31;;;26.87;54.77
80410;BME280;69746;45.596;10.154;2023-07-30T02:51:52;99177.97;;;26.82;54.64
80410;BME280;69746;45.596;10.154;2023-07-30T02:54:17;99174.72;;;26.80;54.92
80410;BME280;69746;45.596;10.154;2023-07-30T02:56:46;99183.56;;;26.82;54.85
80410;BME280;69746;45.596;10.154;2023-07-30T02:59:15;99180.78;;;26.82;54.86
80410;BME280;69746;45.596;10.154;2023-07-30T03:01:41;99174.38;;;26.81;54.93
80410;BME280;69746;45.596;10.154;2023-07-30T03:04:06;99179.63;;;26.83;54.98
80410;BME280;69746;45.596;10.154;2023-07-30T03:06:32;99171.13;;;26.79;54.60
80410;BME280;69746;45.596;10.154;2023-07-30T03:08:58;99178.97;;;26.73;54.36
80410;BME280;69746;45.596;10.154;2023-07-30T03:11:24;99176.06;;;26.70;54.50
80410;BME280;69746;45.596;10.154;2023-07-30T03:13:50;99162.91;;;26.70;54.47
80410;BME280;69746;45.596;10.154;2023-07-30T03:16:16;99174.41;;;26.69;54.15
80410;BME280;69746;45.596;10.154;2023-07-30T03:18:41;99177.13;;;26.65;54.16
80410;BME280;69746;45.596;10.154;2023-07-30T03:21:07;99169.56;;;26.66;54.37
80410;BME280;69746;45.596;10.154;2023-07-30T03:23:33;99174.69;;;26.64;54.49
80410;BME280;69746;45.596;10.154;2023-07-30T03:26:02;99173.16;;;26.66;54.37
80410;BME280;69746;45.596;10.154;2023-07-30T03:28:28;99163.41;;;26.60;54.21
80410;BME280;69746;45.596;10.154;2023-07-30T03:30:53;99161.44;;;26.61;54.42
80410;BME280;69746;45.596;10.154;2023-07-30T03:33:20;99169.00;;;26.60;54.22
80410;BME280;69746;45.596;10.154;2023-07-30T03:35:45;99161.06;;;26.62;54.38
80410;BME280;69746;45.596;10.154;2023-07-30T03:38:11;99161.06;;;26.62;54.62
80410;BME280;69746;45.596;10.154;2023-07-30T03:40:37;99159.88;;;26.63;54.35
80410;BME280;69746;45.596;10.154;2023-07-30T03:43:03;99177.84;;;26.62;54.18
80410;BME280;69746;45.596;10.154;2023-07-30T03:45:28;99173.44;;;26.61;53.87
80410;BME280;69746;45.596;10.154;2023-07-30T03:47:54;99169.47;;;26.62;54.19
80410;BME280;69746;45.596;10.154;2023-07-30T03:50:20;99178.66;;;26.63;54.30
80410;BME280;69746;45.596;10.154;2023-07-30T03:52:49;99174.69;;;26.64;53.95
80410;BME280;69746;45.596;10.154;2023-07-30T03:55:15;99166.66;;;26.62;54.02
80410;BME280;69746;45.596;10.154;2023-07-30T03:57:41;99171.72;;;26.57;54.06
80410;BME280;69746;45.596;10.154;2023-07-30T04:00:07;99165.09;;;26.49;53.99
80410;BME280;69746;45.596;10.154;2023-07-30T04:02:33;99170.13;;;26.43;54.36
80410;BME280;69746;45.596;10.154;2023-07-30T04:04:59;99170.00;;;26.40;54.25
80410;BME280;69746;45.596;10.154;2023-07-30T04:07:24;99168.84;;;26.41;54.35
80410;BME280;69746;45.596;10.154;2023-07-30T04:09:50;99173.75;;;26.44;54.35
80410;BME280;69746;45.596;10.154;2023-07-30T04:12:16;99169.41;;;26.47;54.28
80410;BME280;69746;45.596;10.154;2023-07-30T04:14:42;99164.63;;;26.47;54.47
80410;BME280;69746;45.596;10.154;2023-07-30T04:17:10;99163.47;;;26.48;54.05
80410;BME280;69746;45.596;10.154;2023-07-30T04:19:36;99161.13;;;26.50;54.36
80410;BME280;69746;45.596;10.154;2023-07-30T04:22:02;99160.66;;;26.48;53.64
80410;BME280;69746;45.596;10.154;2023-07-30T04:24:28;99157.78;;;26.44;53.70
80410;BME280;69746;45.596;10.154;2023-07-30T04:26:54;99161.75;;;26.43;53.69
80410;BME280;69746;45.596;10.154;2023-07-30T04:29:20;99158.38;;;26.38;53.80
80410;BME280;69746;45.596;10.154;2023-07-30T04:31:45;99160.34;;;26.37;53.71
80410;BME280;69746;45.596;10.154;2023-07-30T04:34:11;99148.00;;;26.38;53.70
80410;BME280;69746;45.596;10.154;2023-07-30T04:36:37;99148.00;;;26.38;53.90
80410;BME280;69746;45.596;10.154;2023-07-30T04:39:03;99156.38;;;26.38;53.52
80410;BME280;69746;45.596;10.154;2023-07-30T04:41:28;99153.13;;;26.36;53.40
80410;BME280;69746;45.596;10.154;2023-07-30T04:43:57;99160.34;;;26.37;53.59
80410;BME280;69746;45.596;10.154;2023-07-30T04:46:23;99162.78;;;26.39;53.46
80410;BME280;69746;45.596;10.154;2023-07-30T04:48:49;99164.31;;;26.36;53.54
80410;BME280;69746;45.596;10.154;2023-07-30T04:51:15;99165.94;;;26.37;53.76
80410;BME280;69746;45.596;10.154;2023-07-30T04:53:40;99170.13;;;26.31;53.45
80410;BME280;69746;45.596;10.154;2023-07-30T04:56:06;99180.16;;;26.32;53.63
80410;BME280;69746;45.596;10.154;2023-07-30T04:58:32;99181.41;;;26.35;53.56
80410;BME280;69746;45.596;10.154;2023-07-30T05:00:58;99188.31;;;26.37;53.40
80410;BME280;69746;45.596;10.154;2023-07-30T05:03:24;99196.81;;;26.41;53.81
80410;BME280;69746;45.596;10.154;2023-07-30T05:05:49;99194.72;;;26.38;53.88
80410;BME280;69746;45.596;10.154;2023-07-30T05:08:18;99197.06;;;26.36;53.21
80410;BME280;69746;45.596;10.154;2023-07-30T05:10:44;99196.00;;;26.28;53.19
80410;BME280;69746;45.596;10.154;2023-07-30T05:13:10;99198.69;;;26.25;53.58
80410;BME280;69746;45.596;10.154;2023-07-30T05:15:38;99194.53;;;26.19;53.69
80410;BME280;69746;45.596;10.154;2023-07-30T05:18:04;99204.06;;;26.17;53.66
80410;BME280;69746;45.596;10.154;2023-07-30T05:20:30;99202.91;;;26.19;54.00
80410;BME280;69746;45.596;10.154;2023-07-30T05:22:56;99214.09;;;26.19;54.13
80410;BME280;69746;45.596;10.154;2023-07-30T05:25:21;99209.78;;;26.21;53.69
80410;BME280;69746;45.596;10.154;2023-07-30T05:27:48;99208.25;;;26.24;53.80
80410;BME280;69746;45.596;10.154;2023-07-30T05:30:14;99214.19;;;26.22;53.97
80410;BME280;69746;45.596;10.154;2023-07-30T05:32:40;99210.13;;;26.20;54.29
80410;BME280;69746;45.596;10.154;2023-07-30T05:35:08;99213.03;;;26.23;54.19
80410;BME280;69746;45.596;10.154;2023-07-30T05:37:34;99216.19;;;26.22;53.91
80410;BME280;69746;45.596;10.154;2023-07-30T05:40:00;99209.41;;;26.23;54.45
80410;BME280;69746;45.596;10.154;2023-07-30T05:42:26;99227.47;;;26.25;54.68
80410;BME280;69746;45.596;10.154;2023-07-30T05:44:52;99223.13;;;26.28;54.67
80410;BME280;69746;45.596;10.154;2023-07-30T05:47:17;99229.09;;;26.26;55.01
80410;BME280;69746;45.596;10.154;2023-07-30T05:49:43;99229.09;;;26.26;54.25
80410;BME280;69746;45.596;10.154;2023-07-30T05:52:09;99222.78;;;26.29;54.29
80410;BME280;69746;45.596;10.154;2023-07-30T05:54:35;99209.97;;;26.28;54.42
80410;BME280;69746;45.596;10.154;2023-07-30T05:57:00;99216.72;;;26.27;54.97
80410;BME280;69746;45.596;10.154;2023-07-30T05:59:26;99219.53;;;26.27;54.85
80410;BME280;69746;45.596;10.154;2023-07-30T06:01:55;99218.72;;;26.27;55.04
80410;BME280;69746;45.596;10.154;2023-07-30T06:04:22;99223.94;;;26.28;55.19
80410;BME280;69746;45.596;10.154;2023-07-30T06:06:48;99213.59;;;26.29;54.89
80410;BME280;69746;45.596;10.154;2023-07-30T06:09:14;99224.75;;;26.29;54.78
80410;BME280;69746;45.596;10.154;2023-07-30T06:11:39;99219.53;;;26.27;54.29
80410;BME280;69746;45.596;10.154;2023-07-30T06:14:05;99221.97;;;26.29;54.36
80410;BME280;69746;45.596;10.154;2023-07-30T06:16:31;99220.78;;;26.30;53.71
80410;BME280;69746;45.596;10.154;2023-07-30T06:18:57;99226.38;;;26.30;54.19
80410;BME280;69746;45.596;10.154;2023-07-30T06:21:23;99220.00;;;26.29;53.89
80410;BME280;69746;45.596;10.154;2023-07-30T06:23:48;99221.97;;;26.29;54.28
80410;BME280;69746;45.596;10.154;2023-07-30T06:26:14;99227.19;;;26.30;54.09
80410;BME280;69746;45.596;10.154;2023-07-30T06:28:42;99232.47;;;26.32;54.00
80410;BME280;69746;45.596;10.154;2023-07-30T06:31:08;99234.91;;;26.33;54.32
80410;BME280;69746;45.596;10.154;2023-07-30T06:33:34;99233.75;;;26.34;54.12
80410;BME280;69746;45.596;10.154;2023-07-30T06:36:00;99228.16;;;26.34;54.15
80410;BME280;69746;45.596;10.154;2023-07-30T06:38:26;99233.41;;;26.36;54.44
80410;BME280;69746;45.596;10.154;2023-07-30T06:40:52;99238.16;;;26.35;54.19
80410;BME280;69746;45.596;10.154;2023-07-30T06:43:18;99237.84;;;26.37;54.65
80410;BME280;69746;45.596;10.154;2023-07-30T06:45:43;99233.41;;;26.36;54.26
80410;BME280;69746;45.596;10.154;2023-07-30T06:48:09;99239.47;;;26.38;54.87
80410;BME280;69746;45.596;10.154;2023-07-30T06:50:35;99241.91;;;26.39;55.44
80410;BME280;69746;45.596;10.154;2023-07-30T06:53:01;99235.97;;;26.41;55.10
80410;BME280;69746;45.596;10.154;2023-07-30T06:55:27;99232.00;;;26.42;54.95
80410;BME280;69746;45.596;10.154;2023-07-30T06:57:52;99239.56;;;26.41;55.05
80410;BME280;69746;45.596;10.154;2023-07-30T07:00:18;99236.41;;;26.43;54.94
80410;BME280;69746;45.596;10.154;2023-07-30T07:02:48;99239.22;;;26.43;55.04
80410;BME280;69746;45.596;10.154;2023-07-30T07:05:17;99236.91;;;26.45;55.20
80410;BME280;69746;45.596;10.154;2023-07-30T07:07:43;99244.94;;;26.47;55.26
80410;BME280;69746;45.596;10.154;2023-07-30T07:10:09;99244.22;;;26.50;55.08
80410;BME280;69746;45.596;10.154;2023-07-30T07:12:37;99250.63;;;26.50;55.76
80410;BME280;69746;45.596;10.154;2023-07-30T07:15:05;99253.06;;;26.52;55.63
80410;BME280;69746;45.596;10.154;2023-07-30T07:17:31;99248.28;;;26.52;55.51
80410;BME280;69746;45.596;10.154;2023-07-30T07:20:00;99247.13;;;26.53;55.39
80410;BME280;69746;45.596;10.154;2023-07-30T07:22:27;99246.75;;;26.55;55.60
80410;BME280;69746;45.596;10.154;2023-07-30T07:24:53;99246.06;;;26.58;55.76
80410;BME280;69746;45.596;10.154;2023-07-30T07:27:19;99239.66;;;26.57;55.94
80410;BME280;69746;45.596;10.154;2023-07-30T07:29:45;99247.69;;;26.59;55.14
80410;BME280;69746;45.596;10.154;2023-07-30T07:32:10;99236.97;;;26.61;55.39
80410;BME280;69746;45.596;10.154;2023-07-30T07:34:36;99245.00;;;26.62;55.35
80410;BME280;69746;45.596;10.154;2023-07-30T07:37:02;99237.41;;;26.63;56.08
80410;BME280;69746;45.596;10.154;2023-07-30T07:39:28;99249.41;;;26.63;56.02
80410;BME280;69746;45.596;10.154;2023-07-30T07:41:55;99230.66;;;26.64;56.28
80410;BME280;69746;45.596;10.154;2023-07-30T07:44:21;99236.25;;;26.64;55.73
80410;BME280;69746;45.596;10.154;2023-07-30T07:46:50;99231.47;;;26.64;55.47
80410;BME280;69746;45.596;10.154;2023-07-30T07:49:16;99231.47;;;26.64;55.44
80410;BME280;69746;45.596;10.154;2023-07-30T07:51:42;99236.69;;;26.66;55.23
80410;BME280;69746;45.596;10.154;2023-07-30T07:54:14;99234.34;;;26.68;55.31
80410;BME280;69746;45.596;10.154;2023-07-30T07:56:39;99234.84;;;26.70;55.07
80410;BME280;69746;45.596;10.154;2023-07-30T07:59:05;99246.13;;;26.73;55.14
80410;BME280;69746;45.596;10.154;2023-07-30T08:01:31;99248.56;;;26.75;54.56
80410;BME280;69746;45.596;10.154;2023-07-30T08:03:57;99253.81;;;26.77;54.92
80410;BME280;69746;45.596;10.154;2023-07-30T08:06:26;99248.66;;;26.79;54.45
80410;BME280;69746;45.596;10.154;2023-07-30T08:08:52;99251.09;;;26.80;54.49
80410;BME280;69746;45.596;10.154;2023-07-30T08:11:18;99250.75;;;26.82;54.76
80410;BME280;69746;45.596;10.154;2023-07-30T08:13:44;99252.03;;;26.84;54.52
80410;BME280;69746;45.596;10.154;2023-07-30T08:16:11;99250.88;;;26.85;54.51
80410;BME280;69746;45.596;10.154;2023-07-30T08:18:38;99247.69;;;26.87;54.80
80410;BME280;69746;45.596;10.154;2023-07-30T08:21:04;99250.94;;;26.89;54.32
80410;BME280;69746;45.596;10.154;2023-07-30T08:23:32;99244.19;;;26.90;54.70
80410;BME280;69746;45.596;10.154;2023-07-30T08:25:58;99243.38;;;26.89;54.40
80410;BME280;69746;45.596;10.154;2023-07-30T08:28:24;99245.00;;;26.90;54.86
80410;BME280;69746;45.596;10.154;2023-07-30T08:30:50;99241.03;;;26.91;54.45
80410;BME280;69746;45.596;10.154;2023-07-30T08:33:18;99244.28;;;26.93;54.94
80410;BME280;69746;45.596;10.154;2023-07-30T08:35:44;99236.69;;;26.94;54.92
80410;BME280;69746;45.596;10.154;2023-07-30T08:38:10;99237.50;;;26.94;54.43
80410;BME280;69746;45.596;10.154;2023-07-30T08:40:36;99235.53;;;26.95;54.70
80410;BME280;69746;45.596;10.154;2023-07-30T08:43:02;99228.28;;;26.94;54.64
80410;BME280;69746;45.596;10.154;2023-07-30T08:45:29;99227.94;;;26.95;54.60
80410;BME280;69746;45.596;10.154;2023-07-30T08:47:55;99229.59;;;26.96;54.22
80410;BME280;69746;45.596;10.154;2023-07-30T08:50:21;99233.66;;;26.99;54.42
80410;BME280;69746;45.596;10.154;2023-07-30T08:52:47;99226.88;;;27.00;54.34
80410;BME280;69746;45.596;10.154;2023-07-30T08:55:15;99220.13;;;27.01;54.25
80410;BME280;69746;45.596;10.154;2023-07-30T08:57:45;99218.16;;;27.01;54.16
80410;BME280;69746;45.596;10.154;2023-07-30T09:00:15;99216.97;;;27.02;54.17
80410;BME280;69746;45.596;10.154;2023-07-30T09:02:49;99216.97;;;27.02;54.47
80410;BME280;69746;45.596;10.154;2023-07-30T09:05:16;99215.00;;;27.03;54.41
80410;BME280;69746;45.596;10.154;2023-07-30T09:07:43;99206.22;;;27.04;54.58
80410;BME280;69746;45.596;10.154;2023-07-30T09:10:09;99201.44;;;27.05;54.24
80410;BME280;69746;45.596;10.154;2023-07-30T09:12:35;99211.47;;;27.06;54.36
80410;BME280;69746;45.596;10.154;2023-07-30T09:15:03;99203.50;;;27.08;54.42
80410;BME280;69746;45.596;10.154;2023-07-30T09:17:37;99207.97;;;27.09;54.69
80410;BME280;69746;45.596;10.154;2023-07-30T09:20:06;99209.59;;;27.10;54.64
80410;BME280;69746;45.596;10.154;2023-07-30T09:22:33;99210.41;;;27.11;54.52
80410;BME280;69746;45.596;10.154;2023-07-30T09:25:04;99212.03;;;27.12;54.46
80410;BME280;69746;45.596;10.154;2023-07-30T09:27:31;99209.22;;;27.12;54.45
80410;BME280;69746;45.596;10.154;2023-07-30T09:29:59;99211.66;;;27.13;54.37
80410;BME280;69746;45.596;10.154;2023-07-30T09:32:31;99212.47;;;27.14;54.17
80410;BME280;69746;45.596;10.154;2023-07-30T09:35:07;99221.34;;;27.16;54.33
80410;BME280;69746;45.596;10.154;2023-07-30T09:37:39;99222.50;;;27.15;54.33
80410;BME280;69746;45.596;10.154;2023-07-30T09:40:10;99217.72;;;27.15;54.04
80410;BME280;69746;45.596;10.154;2023-07-30T09:42:37;99216.53;;;27.16;54.29
80410;BME280;69746;45.596;10.154;2023-07-30T09:45:08;99218.16;;;27.17;54.46
80410;BME280;69746;45.596;10.154;2023-07-30T09:47:37;99213.38;;;27.18;54.39
80410;BME280;69746;45.596;10.154;2023-07-30T09:50:03;99208.59;;;27.18;54.24
80410;BME280;69746;45.596;10.154;2023-07-30T09:52:31;99212.22;;;27.19;54.19
80410;BME280;69746;45.596;10.154;2023-07-30T09:54:57;99218.63;;;27.19;53.96
80410;BME280;69746;45.596;10.154;2023-07-30T09:57:24;99212.66;;;27.21;54.43
80410;BME280;69746;45.596;10.154;2023-07-30T09:59:49;99210.66;;;27.21;54.38
80410;BME280;69746;45.596;10.154;2023-07-30T10:02:16;99205.91;;;27.22;54.52
80410;BME280;69746;45.596;10.154;2023-07-30T10:04:48;99207.97;;;27.25;54.40
80410;BME280;69746;45.596;10.154;2023-07-30T10:07:19;99210.34;;;27.23;54.29
80410;BME280;69746;45.596;10.154;2023-07-30T10:09:46;99203.56;;;27.24;53.98
80410;BME280;69746;45.596;10.154;2023-07-30T10:12:21;99195.16;;;27.24;54.19
80410;BME280;69746;45.596;10.154;2023-07-30T10:14:48;99186.75;;;27.24;54.13
80410;BME280;69746;45.596;10.154;2023-07-30T10:17:17;99193.16;;;27.24;54.04
80410;BME280;69746;45.596;10.154;2023-07-30T10:19:46;99195.59;;;27.26;54.31
80410;BME280;69746;45.596;10.154;2023-07-30T10:24:40;99184.03;;;27.27;54.02
80410;BME280;69746;45.596;10.154;2023-07-30T10:27:09;99177.63;;;27.27;54.20
80410;BME280;69746;45.596;10.154;2023-07-30T10:29:40;99181.69;;;27.29;54.07
80410;BME280;69746;45.596;10.154;2023-07-30T10:32:07;99191.72;;;27.30;54.07
80410;BME280;69746;45.596;10.154;2023-07-30T10:34:44;99188.91;;;27.30;54.13
80410;BME280;69746;45.596;10.154;2023-07-30T10:37:10;99197.31;;;27.30;54.07
80410;BME280;69746;45.596;10.154;2023-07-30T10:39:39;99188.09;;;27.30;53.90
80410;BME280;69746;45.596;10.154;2023-07-30T10:42:06;99189.72;;;27.31;54.06
80410;BME280;69746;45.596;10.154;2023-07-30T10:44:34;99201.75;;;27.31;53.94
80410;BME280;69746;45.596;10.154;2023-07-30T10:47:01;99198.56;;;27.33;53.99
80410;BME280;69746;45.596;10.154;2023-07-30T10:49:27;99197.75;;;27.32;53.84
80410;BME280;69746;45.596;10.154;2023-07-30T10:51:55;99195.78;;;27.33;53.87
80410;BME280;69746;45.596;10.154;2023-07-30T10:54:23;99190.16;;;27.33;53.71
80410;BME280;69746;45.596;10.154;2023-07-30T10:56:49;99201.84;;;27.35;53.80
80410;BME280;69746;45.596;10.154;2023-07-30T10:59:16;99203.47;;;27.36;54.07
80410;BME280;69746;45.596;10.154;2023-07-30T11:01:44;99205.47;;;27.36;53.99
80410;BME280;69746;45.596;10.154;2023-07-30T11:04:20;99208.72;;;27.38;53.80
80410;BME280;69746;45.596;10.154;2023-07-30T11:06:49;99203.13;;;27.38;53.84
80410;BME280;69746;45.596;10.154;2023-07-30T11:09:25;99197.16;;;27.39;53.60
80410;BME280;69746;45.596;10.154;2023-07-30T11:11:52;99199.94;;;27.39;53.94
80410;BME280;69746;45.596;10.154;2023-07-30T11:14:22;99192.00;;;27.41;54.34
80410;BME280;69746;45.596;10.154;2023-07-30T11:16:54;99191.63;;;27.43;54.38
80410;BME280;69746;45.596;10.154;2023-07-30T11:19:21;99200.03;;;27.43;54.54
80410;BME280;69746;45.596;10.154;2023-07-30T11:21:49;99198.41;;;27.42;54.45
80410;BME280;69746;45.596;10.154;2023-07-30T11:24:15;99194.44;;;27.43;54.23
80410;BME280;69746;45.596;10.154;2023-07-30T11:26:43;99202.47;;;27.44;54.29
80410;BME280;69746;45.596;10.154;2023-07-30T11:29:18;99202.47;;;27.44;54.30
80410;BME280;69746;45.596;10.154;2023-07-30T11:31:47;99198.50;;;27.45;54.25
80410;BME280;69746;45.596;10.154;2023-07-30T11:34:15;99200.13;;;27.46;54.13
80410;BME280;69746;45.596;10.154;2023-07-30T11:36:43;99204.47;;;27.44;54.15
80410;BME280;69746;45.596;10.154;2023-07-30T11:39:10;99207.69;;;27.46;54.23
80410;BME280;69746;45.596;10.154;2023-07-30T11:41:37;99204.09;;;27.45;54.08
80410;BME280;69746;45.596;10.154;2023-07-30T11:44:03;99202.09;;;27.46;54.12
80410;BME280;69746;45.596;10.154;2023-07-30T11:46:29;99187.28;;;27.45;54.20
80410;BME280;69746;45.596;10.154;2023-07-30T11:49:15;99189.38;;;27.48;53.88
80410;BME280;69746;45.596;10.154;2023-07-30T11:51:46;99185.66;;;27.44;53.94
80410;BME280;69746;45.596;10.154;2023-07-30T11:54:21;99171.75;;;27.48;53.95
80410;BME280;69746;45.596;10.154;2023-07-30T11:56:56;99176.19;;;27.49;53.70
80410;BME280;69746;45.596;10.154;2023-07-30T11:59:21;99170.59;;;27.49;54.09
80410;BME280;69746;45.596;10.154;2023-07-30T12:01:48;99166.97;;;27.48;54.26
80410;BME280;69746;45.596;10.154;2023-07-30T12:04:14;99170.22;;;27.50;54.11
80410;BME280;69746;45.596;10.154;2023-07-30T12:06:47;99166.25;;;27.51;54.11
80410;BME280;69746;45.596;10.154;2023-07-30T12:09:20;99179.44;;;27.51;53.86
80410;BME280;69746;45.596;10.154;2023-07-30T12:11:59;99174.28;;;27.53;54.23
80410;BME280;69746;45.596;10.154;2023-07-30T12:14:27;99170.66;;;27.52;54.36
80410;BME280;69746;45.596;10.154;2023-07-30T12:16:56;99171.47;;;27.53;54.03
80410;BME280;69746;45.596;10.154;2023-07-30T12:19:23;99176.72;;;27.54;54.05
80410;BME280;69746;45.596;10.154;2023-07-30T12:21:49;99174.72;;;27.55;54.26
80410;BME280;69746;45.596;10.154;2023-07-30T12:24:17;99169.13;;;27.55;54.25
80410;BME280;69746;45.596;10.154;2023-07-30T12:26:43;99160.28;;;27.53;54.36
80410;BME280;69746;45.596;10.154;2023-07-30T12:29:09;99167.13;;;27.55;54.33
80410;BME280;69746;45.596;10.154;2023-07-30T12:31:35;99163.97;;;27.57;54.19
80410;BME280;69746;45.596;10.154;2023-07-30T12:34:02;99155.13;;;27.55;54.02
80410;BME280;69746;45.596;10.154;2023-07-30T12:36:28;99154.00;;;27.59;54.12
80410;BME280;69746;45.596;10.154;2023-07-30T12:38:54;99146.41;;;27.60;54.17
80410;BME280;69746;45.596;10.154;2023-07-30T12:41:20;99141.53;;;27.57;54.48
80410;BME280;69746;45.596;10.154;2023-07-30T12:43:56;99150.88;;;27.61;54.59
80410;BME280;69746;45.596;10.154;2023-07-30T12:46:23;99147.22;;;27.60;54.38
80410;BME280;69746;45.596;10.154;2023-07-30T12:48:49;99138.47;;;27.62;54.28
80410;BME280;69746;45.596;10.154;2023-07-30T12:51:18;99133.34;;;27.64;54.39